Terminal Aerodrome Forecast
Issued by NWS Corpus Christi, TX

Home | Current Version | Previous Version | Text Only | Print | Product List | Glossary On
Versions: 1 2 3 4 5 6 7 8 9 10 11 12 13 14 15 16
000
FTUS44 KCRP 201700
TAFCRP
TAF
KCRP 201720Z 2018/2118 01010KT P6SM OVC015
     FM202200 04006KT P6SM BKN025 OVC080
     FM210900 04008KT 6SM -DZ BR OVC015
     FM211600 06008KT P6SM BKN020=

USA.gov is the U.S. government's official web portal to all federal, state and local government web resources and services.